CheckWX is a tool to help pilots better visualize weather data.  It is not intended as a substitute for an official pre-flight weather briefing.

13:43:42 UTC

KJYO METAR
Leesburg Executive Airport
Leesburg, Virginia, USA
Current

29 mins ago

KJYO 201315Z AUTO 29005KT 10SM CLR 31/25 A2998 RMK AO2
Observed
Jul-20 @ 13:15 UTC
Wind
  • 290° at 5 KTS
Visibility
10 SM
Flight Rules
VFR
Cloud Levels
  • Clear skies
Temperature
31°C / 88°F
Dewpoint
25°C / 77°F
Heat Index
38°C / 100°F
Humidity
70%
Altimeter
29.98" Hg
Pressure
1015.22 hPa
Previous

49 mins ago

KJYO 201255Z AUTO 28003KT 10SM CLR 30/25 A2997 RMK AO2
Observed
Jul-20 @ 12:55 UTC
Wind
  • 280° at 3 KTS
Visibility
10 SM
Flight Rules
VFR
Cloud Levels
  • Clear skies
Temperature
30°C / 86°F
Dewpoint
25°C / 77°F
Heat Index
36°C / 97°F
Humidity
75%
Altimeter
29.97" Hg
Pressure
1014.92 hPa
Previous

1 hour ago

KJYO 201235Z AUTO 00000KT 10SM CLR 30/25 A2996 RMK AO2
Observed
Jul-20 @ 12:35 UTC
Visibility
10 SM
Flight Rules
VFR
Cloud Levels
  • Clear skies
Temperature
30°C / 86°F
Dewpoint
25°C / 77°F
Heat Index
36°C / 97°F
Humidity
75%
Altimeter
29.96" Hg
Pressure
1014.52 hPa